createdAt,value
2019-06-20T00:00:39.222Z,0.00
2019-06-20T00:01:39.262Z,0.00
2019-06-20T00:02:39.301Z,0.00
2019-06-20T00:03:39.341Z,0.00
2019-06-20T00:04:39.379Z,0.00
2019-06-20T00:05:39.428Z,0.00
2019-06-20T00:06:39.458Z,0.00
2019-06-20T00:07:39.497Z,0.00
2019-06-20T00:08:39.535Z,0.00
2019-06-20T00:09:39.577Z,0.00
2019-06-20T00:10:39.616Z,0.00
2019-06-20T00:11:39.660Z,0.00
2019-06-20T00:12:39.693Z,0.00
2019-06-20T00:13:39.730Z,0.00
2019-06-20T00:14:39.772Z,0.00
2019-06-20T00:15:39.811Z,0.00
2019-06-20T00:16:39.849Z,0.00
2019-06-20T00:17:39.888Z,0.00
2019-06-20T00:18:39.926Z,0.00
2019-06-20T00:19:39.968Z,0.00
2019-06-20T00:20:40.044Z,0.00
2019-06-20T00:21:40.045Z,0.00
2019-06-20T00:22:40.092Z,0.00
2019-06-20T00:23:40.121Z,0.00
2019-06-20T00:24:40.193Z,0.00
2019-06-20T00:25:40.199Z,0.00
2019-06-20T00:26:40.238Z,0.00
2019-06-20T00:27:40.278Z,0.00
2019-06-20T00:28:40.325Z,0.00
2019-06-20T00:29:40.356Z,0.00
2019-06-20T00:30:40.395Z,0.00
2019-06-20T00:31:40.436Z,0.00
2019-06-20T00:32:40.473Z,0.00
2019-06-20T00:33:40.515Z,0.00
2019-06-20T00:34:40.566Z,0.00
2019-06-20T00:35:40.591Z,0.00
2019-06-20T00:36:40.630Z,0.00
2019-06-20T00:37:40.670Z,0.00
2019-06-20T00:38:40.706Z,0.00
2019-06-20T00:39:40.745Z,0.00
2019-06-20T00:40:40.787Z,0.00
2019-06-20T00:41:40.824Z,0.00
2019-06-20T00:42:40.863Z,0.00
2019-06-20T00:43:40.901Z,0.00
2019-06-20T00:44:40.940Z,0.00
2019-06-20T00:45:40.979Z,0.00
2019-06-20T00:46:41.054Z,0.00
2019-06-20T00:47:41.056Z,0.00
2019-06-20T00:48:41.097Z,0.00
2019-06-20T00:49:41.134Z,0.00
2019-06-20T00:50:41.174Z,0.00
2019-06-20T00:51:41.212Z,0.00
2019-06-20T00:52:41.251Z,0.00
2019-06-20T00:53:41.291Z,0.00
2019-06-20T00:54:41.328Z,0.00
2019-06-20T00:55:41.367Z,0.00
2019-06-20T00:56:41.406Z,0.00
2019-06-20T00:57:41.450Z,0.00
2019-06-20T00:58:41.485Z,0.00
2019-06-20T00:59:41.523Z,0.00
2019-06-20T01:00:41.566Z,0.00
2019-06-20T01:01:41.601Z,0.00
2019-06-20T01:02:41.695Z,0.00
2019-06-20T01:03:41.680Z,0.00
2019-06-20T01:04:41.732Z,0.00
2019-06-20T01:05:41.757Z,0.00
2019-06-20T01:06:41.795Z,0.00
2019-06-20T01:07:41.835Z,0.00
2019-06-20T01:08:41.875Z,0.00
2019-06-20T01:09:41.915Z,0.00
2019-06-20T01:10:41.961Z,0.00
2019-06-20T01:11:41.991Z,0.00
2019-06-20T01:12:42.036Z,0.00
2019-06-20T01:13:42.082Z,0.00
2019-06-20T01:14:42.109Z,0.00
2019-06-20T01:15:42.146Z,0.00
2019-06-20T01:16:42.184Z,0.00
2019-06-20T01:17:42.244Z,0.00
2019-06-20T01:18:42.262Z,0.00
2019-06-20T01:19:42.323Z,0.00
2019-06-20T01:20:42.340Z,0.00
2019-06-20T01:21:42.379Z,0.00
2019-06-20T01:22:42.418Z,0.00
2019-06-20T01:23:42.456Z,0.00
2019-06-20T01:24:42.496Z,0.00
2019-06-20T01:25:42.538Z,0.00
2019-06-20T01:26:42.576Z,0.00
2019-06-20T01:27:42.612Z,0.00
2019-06-20T01:28:42.651Z,0.00
2019-06-20T01:29:42.696Z,0.00
2019-06-20T01:30:42.809Z,0.00
2019-06-20T01:31:42.774Z,0.00
2019-06-20T01:32:42.806Z,0.00
2019-06-20T01:33:42.845Z,0.00
2019-06-20T01:34:42.884Z,0.00
2019-06-20T01:35:42.923Z,0.00
2019-06-20T01:36:42.961Z,0.00
2019-06-20T01:37:43.002Z,0.00
2019-06-20T01:38:43.038Z,0.00
2019-06-20T01:39:43.078Z,0.00
2019-06-20T01:40:43.123Z,0.00
2019-06-20T01:41:43.158Z,0.00
2019-06-20T01:42:43.200Z,0.00
2019-06-20T01:43:50.660Z,0.00
2019-06-20T01:44:43.271Z,0.00
2019-06-20T01:45:43.317Z,0.00
2019-06-20T01:46:43.349Z,0.00
2019-06-20T01:47:43.387Z,0.00
2019-06-20T01:48:43.427Z,0.00
2019-06-20T01:49:43.465Z,0.00
2019-06-20T01:50:43.502Z,0.00
2019-06-20T01:51:43.541Z,0.00
2019-06-20T01:52:43.580Z,0.00
2019-06-20T01:53:43.625Z,0.00
2019-06-20T01:54:43.656Z,0.00
2019-06-20T01:55:43.703Z,0.00
2019-06-20T01:56:43.733Z,0.00
2019-06-20T01:57:43.772Z,0.00
2019-06-20T01:58:43.809Z,0.00
2019-06-20T01:59:43.855Z,0.00
2019-06-20T02:00:43.895Z,0.00
2019-06-20T02:01:43.925Z,0.00
2019-06-20T02:02:43.967Z,0.00
2019-06-20T02:03:44.004Z,0.00
2019-06-20T02:04:44.133Z,0.00
2019-06-20T02:05:44.079Z,0.00
2019-06-20T02:06:44.118Z,0.00
2019-06-20T02:07:44.156Z,0.00
2019-06-20T02:08:44.194Z,0.00
2019-06-20T02:09:44.244Z,0.00
2019-06-20T02:10:44.291Z,0.00
2019-06-20T02:11:44.308Z,0.00
2019-06-20T02:12:44.348Z,0.00
2019-06-20T02:13:44.392Z,0.00
2019-06-20T02:14:44.424Z,0.00
2019-06-20T02:15:44.461Z,0.00
2019-06-20T02:16:44.500Z,0.00
2019-06-20T02:17:44.540Z,0.00
2019-06-20T02:18:44.577Z,0.00
2019-06-20T02:19:44.617Z,0.00
2019-06-20T02:20:44.658Z,0.00
2019-06-20T02:21:44.692Z,0.00
2019-06-20T02:22:44.730Z,0.00
2019-06-20T02:23:44.767Z,0.00
2019-06-20T02:24:44.808Z,0.00
2019-06-20T02:25:44.844Z,0.00
2019-06-20T02:26:44.889Z,0.00
2019-06-20T02:27:44.919Z,0.00
2019-06-20T02:28:44.958Z,0.00
2019-06-20T02:29:44.996Z,0.00
2019-06-20T02:30:45.035Z,0.00
2019-06-20T02:31:45.081Z,0.00
2019-06-20T02:32:45.113Z,0.00
2019-06-20T02:33:45.150Z,0.00
2019-06-20T02:34:45.187Z,0.00
2019-06-20T02:35:45.269Z,0.00
2019-06-20T02:36:45.264Z,0.00
2019-06-20T02:37:45.309Z,0.00
2019-06-20T02:38:45.338Z,0.00
2019-06-20T02:39:45.459Z,0.00
2019-06-20T02:40:45.428Z,0.00
2019-06-20T02:41:45.456Z,0.00
2019-06-20T02:42:45.490Z,0.00
2019-06-20T02:43:45.530Z,0.00
2019-06-20T02:44:45.567Z,0.00
2019-06-20T02:45:45.605Z,0.00
2019-06-20T02:46:45.645Z,0.00
2019-06-20T02:47:45.682Z,0.00
2019-06-20T02:48:45.718Z,0.00
2019-06-20T02:49:45.756Z,0.00
2019-06-20T02:50:45.793Z,0.00
2019-06-20T02:51:45.830Z,0.00
2019-06-20T02:52:45.875Z,0.00
2019-06-20T02:53:45.907Z,0.00
2019-06-20T02:54:45.944Z,0.00
2019-06-20T02:55:45.982Z,0.00
2019-06-20T02:56:46.021Z,0.00
2019-06-20T02:57:46.059Z,0.00
2019-06-20T02:58:46.095Z,0.00
2019-06-20T02:59:46.141Z,0.00
2019-06-20T03:00:46.271Z,0.00
2019-06-20T03:01:46.210Z,0.00
2019-06-20T03:02:46.245Z,0.00
2019-06-20T03:03:46.294Z,0.00
2019-06-20T03:04:46.321Z,0.00
2019-06-20T03:05:46.386Z,0.00
2019-06-20T03:06:46.399Z,0.00
2019-06-20T03:07:46.435Z,0.00
2019-06-20T03:08:46.472Z,0.00
2019-06-20T03:09:46.516Z,0.00
2019-06-20T03:10:46.554Z,0.00
2019-06-20T03:11:46.583Z,0.00
2019-06-20T03:12:46.627Z,0.00
2019-06-20T03:13:46.660Z,0.00
2019-06-20T03:14:46.696Z,0.00
2019-06-20T03:15:49.889Z,0.00
2019-06-20T03:16:46.773Z,0.00
2019-06-20T03:17:46.826Z,0.00
2019-06-20T03:18:46.847Z,0.00
2019-06-20T03:19:46.885Z,0.00
2019-06-20T03:20:46.922Z,0.00
2019-06-20T03:21:46.965Z,0.00
2019-06-20T03:22:47.002Z,0.00
2019-06-20T03:23:47.035Z,0.00
2019-06-20T03:24:47.073Z,0.00
2019-06-20T03:25:47.111Z,0.00
2019-06-20T03:26:47.147Z,0.00
2019-06-20T03:27:47.186Z,0.00
2019-06-20T03:28:47.222Z,0.00
2019-06-20T03:29:47.263Z,0.00
2019-06-20T03:30:47.312Z,0.00
2019-06-20T03:31:47.335Z,0.00
2019-06-20T03:32:47.389Z,0.00
2019-06-20T03:33:47.412Z,0.00
2019-06-20T03:34:47.449Z,0.00
2019-06-20T03:35:47.485Z,0.00
2019-06-20T03:36:47.525Z,0.00
2019-06-20T03:37:50.216Z,0.00
2019-06-20T03:38:47.596Z,0.00
2019-06-20T03:39:47.643Z,0.00
2019-06-20T03:40:47.692Z,0.00
2019-06-20T03:41:47.710Z,0.00
2019-06-20T03:42:47.748Z,0.00
2019-06-20T03:43:47.784Z,0.00
2019-06-20T03:45:01.164Z,0.00
2019-06-20T03:45:47.861Z,0.00
2019-06-20T03:46:47.895Z,0.00
2019-06-20T03:47:47.933Z,0.00
2019-06-20T03:48:47.971Z,0.00
2019-06-20T03:49:48.009Z,0.00
2019-06-20T03:50:48.045Z,0.00
2019-06-20T03:51:51.481Z,0.00
2019-06-20T03:52:48.123Z,0.00
2019-06-20T03:53:48.157Z,0.00
2019-06-20T03:54:48.195Z,0.00
2019-06-20T03:55:48.231Z,0.00
2019-06-20T03:56:48.270Z,0.00
2019-06-20T03:57:48.312Z,0.00
2019-06-20T03:58:48.349Z,5.63
2019-06-20T03:59:48.383Z,5.63
2019-06-20T04:00:48.422Z,5.63
2019-06-20T04:01:49.293Z,5.63
2019-06-20T04:02:48.501Z,5.63
2019-06-20T04:03:48.531Z,5.63
2019-06-20T04:04:48.571Z,5.63
2019-06-20T04:05:48.608Z,5.63
2019-06-20T04:06:48.643Z,5.63
2019-06-20T04:07:48.692Z,5.63
2019-06-20T04:08:48.718Z,5.63
2019-06-20T04:09:48.761Z,5.63
2019-06-20T04:10:48.792Z,5.63
2019-06-20T04:11:48.832Z,5.63
2019-06-20T04:12:48.869Z,5.63
2019-06-20T04:13:48.905Z,5.63
2019-06-20T04:14:49.264Z,5.63
2019-06-20T04:15:48.978Z,5.63
2019-06-20T04:16:49.017Z,5.63
2019-06-20T04:17:49.054Z,5.63
2019-06-20T04:18:49.092Z,5.63
2019-06-20T04:19:49.186Z,5.63
2019-06-20T04:20:49.193Z,5.63
2019-06-20T04:21:49.205Z,5.63
2019-06-20T04:22:49.246Z,5.63
2019-06-20T04:23:49.293Z,5.63
2019-06-20T04:24:49.322Z,5.63
2019-06-20T04:25:49.355Z,5.63
2019-06-20T04:26:49.391Z,5.63
2019-06-20T04:27:49.426Z,5.63
2019-06-20T04:28:49.465Z,5.63
2019-06-20T04:29:49.513Z,5.63
2019-06-20T04:30:49.540Z,5.63
2019-06-20T04:31:49.582Z,5.63
2019-06-20T04:32:49.614Z,5.63
2019-06-20T04:33:49.659Z,5.63
2019-06-20T04:34:49.689Z,5.63
2019-06-20T04:35:49.733Z,5.63
2019-06-20T04:36:49.766Z,5.63
2019-06-20T04:37:49.802Z,5.63
2019-06-20T04:38:49.840Z,5.63
2019-06-20T04:39:49.878Z,5.63
2019-06-20T04:40:49.914Z,5.63
2019-06-20T04:41:49.953Z,5.63
2019-06-20T04:42:49.995Z,5.63
2019-06-20T04:43:50.029Z,5.63
2019-06-20T04:44:50.066Z,11.25
2019-06-20T04:45:50.102Z,11.25
2019-06-20T04:46:50.140Z,11.25
2019-06-20T04:47:50.177Z,11.25
2019-06-20T04:48:50.215Z,11.25
2019-06-20T04:49:50.252Z,11.25
2019-06-20T04:50:50.291Z,11.25
2019-06-20T04:51:50.327Z,11.25
2019-06-20T04:52:50.364Z,11.25
2019-06-20T04:53:50.407Z,11.25
2019-06-20T04:54:50.438Z,11.25
2019-06-20T04:55:50.478Z,11.25
2019-06-20T04:56:50.515Z,11.25
2019-06-20T04:57:50.556Z,11.25
2019-06-20T04:58:50.589Z,11.25
2019-06-20T04:59:50.626Z,11.25
2019-06-20T05:00:50.664Z,11.25
2019-06-20T05:01:50.704Z,11.25
2019-06-20T05:02:50.738Z,11.25
2019-06-20T05:03:50.779Z,11.25
2019-06-20T05:04:50.833Z,11.25
2019-06-20T05:05:50.852Z,11.25
2019-06-20T05:06:50.889Z,11.25
2019-06-20T05:07:50.927Z,11.25
2019-06-20T05:08:50.964Z,11.25
2019-06-20T05:09:51.002Z,11.25
2019-06-20T05:10:51.039Z,11.25
2019-06-20T05:11:51.080Z,11.25
2019-06-20T05:12:51.133Z,11.25
2019-06-20T05:13:51.154Z,11.25
2019-06-20T05:14:51.192Z,11.25
2019-06-20T05:15:52.901Z,11.25
2019-06-20T05:16:51.267Z,11.25
2019-06-20T05:17:51.505Z,11.25
2019-06-20T05:18:51.341Z,11.25
2019-06-20T05:19:51.418Z,11.25
2019-06-20T05:20:51.417Z,11.25
2019-06-20T05:21:51.455Z,11.25
2019-06-20T05:22:51.517Z,11.25
2019-06-20T05:23:51.530Z,11.25
2019-06-20T05:24:51.569Z,11.25
2019-06-20T05:25:51.607Z,11.25
2019-06-20T05:26:51.644Z,11.25
2019-06-20T05:27:51.681Z,11.25
2019-06-20T05:28:51.720Z,11.25
2019-06-20T05:29:51.763Z,11.25
2019-06-20T05:30:51.817Z,11.25
2019-06-20T05:31:51.832Z,11.25
2019-06-20T05:32:51.871Z,11.25
2019-06-20T05:33:51.997Z,11.25
2019-06-20T05:34:51.948Z,11.25
2019-06-20T05:35:51.992Z,11.25
2019-06-20T05:36:52.051Z,11.25
2019-06-20T05:37:52.060Z,11.25
2019-06-20T05:38:52.104Z,11.25
2019-06-20T05:39:52.136Z,11.25
2019-06-20T05:40:52.179Z,11.25
2019-06-20T05:41:52.212Z,5.63
2019-06-20T05:42:52.492Z,5.63
2019-06-20T05:43:52.286Z,5.63
2019-06-20T05:44:52.330Z,5.63
2019-06-20T05:46:05.489Z,5.63
2019-06-20T05:46:52.413Z,5.63
2019-06-20T05:47:52.460Z,5.63
2019-06-20T05:48:52.493Z,5.63
2019-06-20T05:49:52.514Z,5.63
2019-06-20T05:50:52.552Z,5.63
2019-06-20T05:51:52.588Z,5.63
2019-06-20T05:52:52.895Z,5.63
2019-06-20T05:53:52.665Z,5.63
2019-06-20T05:54:52.704Z,5.63
2019-06-20T05:55:52.742Z,5.63
2019-06-20T05:56:52.783Z,5.63
2019-06-20T05:57:52.817Z,5.63
2019-06-20T05:58:52.855Z,5.63
2019-06-20T05:59:52.893Z,5.63
2019-06-20T06:00:53.743Z,5.63
2019-06-20T06:01:56.104Z,5.63
2019-06-20T06:02:53.129Z,5.63
2019-06-20T06:03:53.046Z,11.25
2019-06-20T06:04:53.087Z,11.25
2019-06-20T06:05:53.123Z,11.25
2019-06-20T06:06:53.161Z,11.25
2019-06-20T06:07:53.197Z,5.63
2019-06-20T06:08:53.236Z,5.63
2019-06-20T06:09:53.274Z,5.63
2019-06-20T06:10:53.312Z,5.63
2019-06-20T06:11:53.350Z,5.63
2019-06-20T06:12:53.389Z,5.63
2019-06-20T06:13:53.470Z,5.63
2019-06-20T06:14:53.464Z,5.63
2019-06-20T06:15:53.503Z,5.63
2019-06-20T06:16:53.541Z,5.63
2019-06-20T06:17:53.593Z,5.63
2019-06-20T06:18:53.617Z,0.00
2019-06-20T06:19:53.654Z,0.00
2019-06-20T06:20:53.694Z,0.00
2019-06-20T06:21:53.916Z,0.00
2019-06-20T06:22:53.769Z,0.00
2019-06-20T06:23:53.808Z,0.00
2019-06-20T06:24:53.847Z,0.00
2019-06-20T06:25:53.883Z,0.00
2019-06-20T06:26:53.922Z,0.00
2019-06-20T06:27:53.965Z,0.00
2019-06-20T06:28:53.997Z,0.00
2019-06-20T06:29:54.035Z,0.00
2019-06-20T06:30:54.073Z,0.00
2019-06-20T06:31:54.120Z,0.00
2019-06-20T06:32:54.160Z,0.00
2019-06-20T06:33:54.194Z,0.00
2019-06-20T06:34:54.224Z,0.00
2019-06-20T06:35:54.266Z,0.00
2019-06-20T06:36:54.387Z,0.00
2019-06-20T06:37:54.341Z,0.00
2019-06-20T06:38:54.380Z,0.00
2019-06-20T06:39:54.415Z,0.00
2019-06-20T06:40:54.455Z,5.63
2019-06-20T06:41:54.511Z,5.63
2019-06-20T06:42:54.528Z,5.63
2019-06-20T06:43:54.565Z,5.63
2019-06-20T06:44:54.603Z,5.63
2019-06-20T06:45:54.647Z,5.63
2019-06-20T06:46:59.432Z,5.63
2019-06-20T06:47:54.714Z,5.63
2019-06-20T06:48:54.754Z,5.63
2019-06-20T06:49:54.792Z,5.63
2019-06-20T06:50:54.829Z,5.63
2019-06-20T06:51:54.865Z,5.63
2019-06-20T06:52:54.902Z,5.63
2019-06-20T06:53:54.942Z,5.63
2019-06-20T06:54:54.980Z,5.63
2019-06-20T06:55:55.016Z,5.63
2019-06-20T06:56:55.053Z,5.63
2019-06-20T06:57:55.089Z,5.63
2019-06-20T06:58:55.134Z,5.63
2019-06-20T06:59:55.166Z,5.63
2019-06-20T07:00:55.202Z,5.63
2019-06-20T07:01:55.243Z,5.63
2019-06-20T07:02:55.277Z,5.63
2019-06-20T07:03:55.313Z,5.63
2019-06-20T07:04:55.353Z,5.63
2019-06-20T07:05:55.390Z,5.63
2019-06-20T07:06:55.427Z,5.63
2019-06-20T07:07:55.463Z,5.63
2019-06-20T07:08:55.501Z,5.63
2019-06-20T07:09:55.537Z,5.63
2019-06-20T07:10:55.573Z,5.63
2019-06-20T07:11:55.612Z,11.25
2019-06-20T07:12:55.646Z,11.25
2019-06-20T07:13:55.685Z,11.25
2019-06-20T07:14:55.721Z,11.25
2019-06-20T07:15:55.766Z,11.25
2019-06-20T07:17:00.173Z,11.25
2019-06-20T07:17:55.840Z,11.25
2019-06-20T07:18:55.869Z,11.25
2019-06-20T07:19:55.907Z,11.25
2019-06-20T07:20:55.946Z,11.25
2019-06-20T07:21:55.982Z,11.25
2019-06-20T07:22:56.018Z,11.25
2019-06-20T07:23:56.056Z,11.25
2019-06-20T07:24:56.092Z,11.25
2019-06-20T07:25:56.130Z,11.25
2019-06-20T07:26:56.165Z,11.25
2019-06-20T07:27:56.204Z,11.25
2019-06-20T07:28:56.241Z,11.25
2019-06-20T07:29:56.280Z,11.25
2019-06-20T07:30:56.314Z,16.88
2019-06-20T07:31:56.352Z,16.88
2019-06-20T07:32:56.397Z,16.88
2019-06-20T07:33:56.426Z,16.88
2019-06-20T07:34:56.462Z,11.25
2019-06-20T07:35:56.500Z,11.25
2019-06-20T07:36:56.537Z,11.25
2019-06-20T07:37:56.573Z,11.25
2019-06-20T07:38:56.610Z,11.25
2019-06-20T07:39:56.649Z,5.63
2019-06-20T07:40:56.684Z,5.63
2019-06-20T07:41:56.724Z,5.63
2019-06-20T07:42:56.757Z,5.63
2019-06-20T07:43:56.797Z,5.63
2019-06-20T07:44:56.831Z,5.63
2019-06-20T07:46:02.527Z,5.63
2019-06-20T07:46:56.909Z,5.63
2019-06-20T07:47:56.950Z,5.63
2019-06-20T07:48:56.982Z,5.63
2019-06-20T07:49:57.017Z,5.63
2019-06-20T07:50:57.057Z,5.63
2019-06-20T07:51:57.117Z,5.63
2019-06-20T07:53:02.636Z,5.63
2019-06-20T07:53:57.167Z,5.63
2019-06-20T07:54:57.203Z,5.63
2019-06-20T07:55:57.239Z,5.63
2019-06-20T07:56:57.280Z,5.63
2019-06-20T07:57:57.315Z,5.63
2019-06-20T07:58:57.357Z,5.63
2019-06-20T07:59:57.389Z,5.63
2019-06-20T08:00:57.430Z,5.63
2019-06-20T08:01:57.465Z,5.63
2019-06-20T08:02:57.502Z,11.25
2019-06-20T08:03:57.585Z,11.25
2019-06-20T08:04:57.581Z,11.25
2019-06-20T08:05:57.612Z,11.25
2019-06-20T08:06:57.651Z,11.25
2019-06-20T08:07:57.688Z,11.25
2019-06-20T08:08:57.724Z,11.25
2019-06-20T08:09:57.761Z,11.25
2019-06-20T08:10:57.798Z,11.25
2019-06-20T08:11:57.839Z,11.25
2019-06-20T08:12:57.873Z,11.25
2019-06-20T08:13:57.913Z,11.25
2019-06-20T08:15:13.752Z,11.25
2019-06-20T08:15:57.989Z,11.25
2019-06-20T08:16:58.031Z,11.25
2019-06-20T08:17:58.064Z,16.88
2019-06-20T08:18:58.096Z,16.88
2019-06-20T08:19:58.134Z,16.88
2019-06-20T08:20:58.180Z,16.88
2019-06-20T08:21:58.209Z,16.88
2019-06-20T08:22:58.247Z,16.88
2019-06-20T08:23:58.283Z,16.88
2019-06-20T08:24:59.047Z,16.88
2019-06-20T08:25:59.243Z,16.88
2019-06-20T08:26:58.760Z,16.88
2019-06-20T08:27:59.452Z,16.88
2019-06-20T08:29:16.607Z,16.88
2019-06-20T08:29:59.062Z,16.88
2019-06-20T08:30:58.973Z,16.88
2019-06-20T08:31:59.771Z,16.88
2019-06-20T08:33:01.258Z,16.88
2019-06-20T08:33:59.224Z,16.88
2019-06-20T08:34:59.541Z,16.88
2019-06-20T08:36:00.204Z,16.88
2019-06-20T08:37:00.204Z,16.88
2019-06-20T08:37:59.347Z,22.50
2019-06-20T08:39:00.182Z,22.50
2019-06-20T08:39:59.942Z,28.13
2019-06-20T08:41:00.120Z,28.13
2019-06-20T08:42:00.403Z,28.13
2019-06-20T08:43:00.193Z,28.13
2019-06-20T08:43:59.808Z,28.13
2019-06-20T08:44:59.482Z,28.13
2019-06-20T08:45:59.555Z,28.13
2019-06-20T08:47:00.658Z,28.13
2019-06-20T08:48:00.100Z,28.13
2019-06-20T08:48:59.518Z,28.13
2019-06-20T08:49:59.764Z,28.13
2019-06-20T08:51:00.089Z,28.13
2019-06-20T08:51:59.332Z,28.13
2019-06-20T08:52:59.787Z,28.13
2019-06-20T08:53:59.408Z,28.13
2019-06-20T08:54:59.685Z,33.75
2019-06-20T08:56:00.860Z,28.13
2019-06-20T08:57:00.757Z,28.13
2019-06-20T08:58:01.260Z,33.75
2019-06-20T08:59:00.604Z,28.13
2019-06-20T09:00:00.680Z,28.13
2019-06-20T09:02:00.711Z,22.50
2019-06-20T09:03:00.532Z,28.13
2019-06-20T09:04:00.103Z,22.50
2019-06-20T09:05:00.266Z,22.50
2019-06-20T09:05:59.859Z,16.88
2019-06-20T09:07:00.628Z,16.88
2019-06-20T09:09:00.119Z,11.25
2019-06-20T09:10:00.018Z,11.25
2019-06-20T09:11:00.047Z,11.25
2019-06-20T09:12:00.405Z,11.25
2019-06-20T09:13:01.327Z,11.25
2019-06-20T09:14:01.483Z,11.25
2019-06-20T09:15:01.209Z,11.25
2019-06-20T09:16:00.905Z,11.25
2019-06-20T09:17:00.739Z,11.25
2019-06-20T09:18:00.725Z,11.25
2019-06-20T09:19:00.522Z,11.25
2019-06-20T09:20:00.392Z,11.25
2019-06-20T09:21:00.430Z,11.25
2019-06-20T09:22:00.564Z,11.25
2019-06-20T09:23:01.087Z,11.25
2019-06-20T09:24:00.542Z,11.25
2019-06-20T09:25:00.894Z,11.25
2019-06-20T09:26:01.897Z,16.88
2019-06-20T09:27:00.656Z,16.88
2019-06-20T09:28:00.695Z,22.50
2019-06-20T09:29:00.733Z,22.50
2019-06-20T09:30:00.773Z,22.50
2019-06-20T09:31:00.810Z,22.50
2019-06-20T09:32:00.845Z,22.50
2019-06-20T09:33:00.884Z,22.50
2019-06-20T09:34:04.125Z,16.88
2019-06-20T09:35:00.959Z,22.50
2019-06-20T09:36:00.996Z,16.88
2019-06-20T09:37:01.035Z,16.88
2019-06-20T09:38:01.075Z,16.88
2019-06-20T09:39:01.112Z,22.50
2019-06-20T09:40:01.151Z,22.50
2019-06-20T09:41:01.194Z,22.50
2019-06-20T09:42:01.229Z,22.50
2019-06-20T09:43:01.268Z,22.50
2019-06-20T09:44:03.054Z,28.13
2019-06-20T09:45:02.841Z,28.13
2019-06-20T09:46:02.566Z,33.75
2019-06-20T09:47:02.514Z,33.75
2019-06-20T09:48:02.724Z,33.75
2019-06-20T09:49:02.677Z,39.38
2019-06-20T09:50:01.531Z,33.75
2019-06-20T09:51:01.566Z,33.75
2019-06-20T09:52:01.626Z,33.75
2019-06-20T09:53:01.644Z,28.13
2019-06-20T09:54:01.682Z,33.75
2019-06-20T09:55:01.763Z,33.75
2019-06-20T09:56:01.758Z,33.75
2019-06-20T09:57:01.797Z,33.75
2019-06-20T09:58:01.835Z,33.75
2019-06-20T09:59:01.936Z,33.75
2019-06-20T10:00:09.375Z,33.75
2019-06-20T10:01:01.961Z,33.75
2019-06-20T10:02:02.236Z,33.75
2019-06-20T10:03:02.026Z,33.75
2019-06-20T10:04:02.064Z,33.75
2019-06-20T10:05:02.102Z,33.75
2019-06-20T10:06:12.744Z,33.75
2019-06-20T10:07:02.179Z,39.38
2019-06-20T10:08:02.219Z,39.38
2019-06-20T10:09:02.256Z,33.75
2019-06-20T10:10:02.296Z,39.38
2019-06-20T10:11:02.334Z,39.38
2019-06-20T10:12:02.371Z,39.38
2019-06-20T10:13:02.416Z,33.75
2019-06-20T10:14:02.451Z,33.75
2019-06-20T10:15:02.489Z,33.75
2019-06-20T10:16:02.651Z,33.75
2019-06-20T10:17:02.571Z,28.13
2019-06-20T10:18:02.603Z,28.13
2019-06-20T10:19:02.639Z,22.50
2019-06-20T10:20:02.684Z,22.50
2019-06-20T10:21:02.737Z,22.50
2019-06-20T10:22:02.760Z,22.50
2019-06-20T10:23:02.793Z,28.13
2019-06-20T10:24:02.831Z,28.13
2019-06-20T10:25:02.869Z,28.13
2019-06-20T10:26:02.918Z,28.13
2019-06-20T10:27:02.951Z,28.13
2019-06-20T10:28:02.987Z,28.13
2019-06-20T10:29:03.057Z,33.75
2019-06-20T10:30:14.001Z,33.75
2019-06-20T10:31:03.108Z,33.75
2019-06-20T10:32:03.138Z,39.38
2019-06-20T10:33:03.178Z,33.75
2019-06-20T10:34:03.223Z,39.38
2019-06-20T10:35:03.259Z,39.38
2019-06-20T10:36:03.292Z,39.38
2019-06-20T10:37:03.368Z,33.75
2019-06-20T10:38:03.375Z,39.38
2019-06-20T10:39:03.408Z,39.38
2019-06-20T10:40:03.446Z,39.38
2019-06-20T10:41:03.485Z,39.38
2019-06-20T10:42:03.532Z,39.38
2019-06-20T10:43:03.563Z,39.38
2019-06-20T10:44:03.603Z,39.38
2019-06-20T10:45:03.684Z,39.38
2019-06-20T10:46:03.680Z,39.38
2019-06-20T10:47:03.716Z,39.38
2019-06-20T10:48:03.755Z,39.38
2019-06-20T10:49:03.794Z,39.38
2019-06-20T10:50:03.838Z,39.38
2019-06-20T10:51:03.870Z,39.38
2019-06-20T10:52:03.910Z,39.38
2019-06-20T10:53:03.946Z,39.38
2019-06-20T10:54:03.994Z,39.38
2019-06-20T10:55:04.023Z,39.38
2019-06-20T10:56:04.070Z,39.38
2019-06-20T10:57:04.102Z,39.38
2019-06-20T10:58:04.141Z,39.38
2019-06-20T10:59:04.178Z,39.38
2019-06-20T11:00:04.219Z,39.38
2019-06-20T11:01:04.260Z,39.38
2019-06-20T11:02:07.186Z,39.38
2019-06-20T11:03:04.333Z,39.38
2019-06-20T11:04:04.374Z,39.38
2019-06-20T11:05:04.412Z,39.38
2019-06-20T11:06:04.451Z,33.75
2019-06-20T11:07:04.490Z,33.75
2019-06-20T11:08:04.540Z,33.75
2019-06-20T11:09:04.567Z,39.38
2019-06-20T11:10:04.607Z,39.38
2019-06-20T11:11:04.645Z,39.38
2019-06-20T11:12:04.683Z,39.38
2019-06-20T11:13:04.722Z,39.38
2019-06-20T11:14:04.761Z,39.38
2019-06-20T11:15:04.799Z,39.38
2019-06-20T11:16:04.843Z,39.38
2019-06-20T11:17:04.879Z,39.38
2019-06-20T11:18:04.917Z,39.38
2019-06-20T11:19:04.956Z,33.75
2019-06-20T11:20:04.999Z,33.75
2019-06-20T11:21:05.067Z,33.75
2019-06-20T11:22:05.073Z,33.75
2019-06-20T11:23:05.122Z,28.13
2019-06-20T11:24:05.149Z,33.75
2019-06-20T11:25:05.191Z,33.75
2019-06-20T11:26:05.230Z,33.75
2019-06-20T11:27:05.266Z,33.75
2019-06-20T11:28:05.325Z,33.75
2019-06-20T11:29:05.346Z,33.75
2019-06-20T11:30:05.390Z,33.75
2019-06-20T11:31:05.422Z,33.75
2019-06-20T11:32:05.464Z,33.75
2019-06-20T11:33:05.502Z,33.75
2019-06-20T11:34:05.542Z,39.38
2019-06-20T11:35:05.580Z,39.38
2019-06-20T11:36:05.618Z,39.38
2019-06-20T11:37:05.659Z,39.38
2019-06-20T11:38:05.698Z,39.38
2019-06-20T11:39:05.736Z,39.38
2019-06-20T11:40:05.800Z,39.38
2019-06-20T11:41:05.816Z,39.38
2019-06-20T11:42:05.856Z,39.38
2019-06-20T11:43:05.898Z,33.75
2019-06-20T11:44:05.933Z,39.38
2019-06-20T11:45:05.972Z,39.38
2019-06-20T11:46:06.025Z,39.38
2019-06-20T11:47:06.050Z,39.38
2019-06-20T11:48:06.089Z,39.38
2019-06-20T11:49:06.169Z,39.38
2019-06-20T11:50:06.168Z,39.38
2019-06-20T11:51:06.206Z,39.38
2019-06-20T11:52:06.250Z,33.75
2019-06-20T11:53:06.286Z,33.75
2019-06-20T11:54:06.328Z,33.75
2019-06-20T11:55:06.373Z,33.75
2019-06-20T11:56:06.404Z,33.75
2019-06-20T11:57:06.445Z,28.13
2019-06-20T11:58:06.485Z,28.13
2019-06-20T11:59:06.526Z,28.13
2019-06-20T12:00:06.564Z,28.13
2019-06-20T12:01:06.673Z,28.13
2019-06-20T12:02:06.642Z,28.13
2019-06-20T12:03:06.696Z,28.13
2019-06-20T12:04:09.370Z,28.13
2019-06-20T12:05:06.758Z,28.13
2019-06-20T12:06:06.825Z,28.13
2019-06-20T12:07:06.842Z,28.13
2019-06-20T12:08:06.902Z,33.75
2019-06-20T12:09:06.918Z,33.75
2019-06-20T12:10:06.959Z,33.75
2019-06-20T12:11:06.995Z,33.75
2019-06-20T12:12:07.037Z,33.75
2019-06-20T12:13:07.076Z,33.75
2019-06-20T12:14:07.120Z,33.75
2019-06-20T12:15:07.224Z,33.75
2019-06-20T12:16:07.213Z,33.75
2019-06-20T12:17:07.234Z,33.75
2019-06-20T12:18:07.295Z,33.75
2019-06-20T12:19:07.312Z,39.38
2019-06-20T12:20:07.353Z,39.38
2019-06-20T12:21:07.392Z,39.38
2019-06-20T12:22:07.432Z,39.38
2019-06-20T12:23:07.480Z,39.38
2019-06-20T12:24:08.647Z,39.38
2019-06-20T12:25:07.551Z,39.38
2019-06-20T12:26:07.590Z,39.38
2019-06-20T12:27:07.632Z,39.38
2019-06-20T12:28:07.696Z,39.38
2019-06-20T12:29:07.712Z,39.38
2019-06-20T12:30:07.748Z,39.38
2019-06-20T12:31:18.990Z,39.38
2019-06-20T12:32:09.963Z,39.38
2019-06-20T12:33:07.868Z,39.38
2019-06-20T12:34:07.913Z,39.38
2019-06-20T12:35:07.949Z,39.38
2019-06-20T12:36:07.989Z,33.75
2019-06-20T12:37:08.027Z,33.75
2019-06-20T12:38:08.068Z,33.75
2019-06-20T12:39:08.113Z,33.75
2019-06-20T12:40:08.146Z,28.13
2019-06-20T12:41:08.185Z,28.13
2019-06-20T12:42:08.231Z,28.13
2019-06-20T12:43:08.266Z,28.13
2019-06-20T12:44:08.307Z,28.13
2019-06-20T12:45:08.346Z,33.75
2019-06-20T12:46:08.452Z,33.75
2019-06-20T12:47:08.432Z,33.75
2019-06-20T12:48:08.466Z,33.75
2019-06-20T12:49:08.507Z,33.75
2019-06-20T12:50:08.554Z,33.75
2019-06-20T12:51:08.585Z,33.75
2019-06-20T12:52:08.626Z,33.75
2019-06-20T12:53:08.666Z,33.75
2019-06-20T12:54:08.706Z,33.75
2019-06-20T12:55:08.743Z,33.75
2019-06-20T12:56:08.786Z,33.75
2019-06-20T12:57:08.825Z,33.75
2019-06-20T12:58:08.867Z,39.38
2019-06-20T12:59:08.905Z,39.38
2019-06-20T13:00:08.945Z,39.38
2019-06-20T13:01:08.986Z,39.38
2019-06-20T13:02:09.028Z,39.38
2019-06-20T13:03:09.067Z,39.38
2019-06-20T13:04:09.113Z,39.38
2019-06-20T13:05:09.146Z,39.38
2019-06-20T13:06:09.186Z,39.38
2019-06-20T13:07:09.228Z,39.38
2019-06-20T13:08:09.275Z,33.75